sensor_id;sensor_type;location;lat;lon;timestamp;pressure;altitude;pressure_sealevel;temperature
67822;BMP180;54434;50.096;20.082;2024-03-23T00:54:10;98246.80;;;9.50
67822;BMP180;54434;50.096;20.082;2024-03-23T00:57:07;98240.40;;;9.50
67822;BMP180;54434;50.096;20.082;2024-03-23T01:00:00;98235.20;;;9.50
67822;BMP180;54434;50.096;20.082;2024-03-23T01:02:57;98233.80;;;9.42
67822;BMP180;54434;50.096;20.082;2024-03-23T01:06:06;98235.00;;;9.40
67822;BMP180;54434;50.096;20.082;2024-03-23T01:08:59;98235.80;;;9.40
67822;BMP180;54434;50.096;20.082;2024-03-23T01:11:54;98238.60;;;9.32
67822;BMP180;54434;50.096;20.082;2024-03-23T01:14:47;98233.60;;;9.30
67822;BMP180;54434;50.096;20.082;2024-03-23T01:17:40;98235.20;;;9.30
67822;BMP180;54434;50.096;20.082;2024-03-23T01:20:35;98233.00;;;9.20
67822;BMP180;54434;50.096;20.082;2024-03-23T01:23:30;98228.20;;;9.20
67822;BMP180;54434;50.096;20.082;2024-03-23T01:26:32;98226.40;;;9.20
67822;BMP180;54434;50.096;20.082;2024-03-23T01:29:24;98223.20;;;9.10
67822;BMP180;54434;50.096;20.082;2024-03-23T01:32:18;98221.80;;;9.10
67822;BMP180;54434;50.096;20.082;2024-03-23T01:35:12;98217.40;;;9.10
67822;BMP180;54434;50.096;20.082;2024-03-23T01:38:06;98215.20;;;9.02
67822;BMP180;54434;50.096;20.082;2024-03-23T01:41:02;98213.40;;;9.00
67822;BMP180;54434;50.096;20.082;2024-03-23T01:43:58;98208.00;;;9.00
67822;BMP180;54434;50.096;20.082;2024-03-23T01:46:56;98208.20;;;8.90
67822;BMP180;54434;50.096;20.082;2024-03-23T01:49:49;98207.00;;;8.90
67822;BMP180;54434;50.096;20.082;2024-03-23T01:52:43;98207.60;;;8.90
67822;BMP180;54434;50.096;20.082;2024-03-23T01:55:36;98204.20;;;8.88
67822;BMP180;54434;50.096;20.082;2024-03-23T01:58:30;98198.60;;;8.80
67822;BMP180;54434;50.096;20.082;2024-03-23T02:01:23;98197.40;;;8.80
67822;BMP180;54434;50.096;20.082;2024-03-23T02:04:20;98198.60;;;8.80
67822;BMP180;54434;50.096;20.082;2024-03-23T02:07:13;98198.40;;;8.80
67822;BMP180;54434;50.096;20.082;2024-03-23T02:10:09;98198.40;;;8.80
67822;BMP180;54434;50.096;20.082;2024-03-23T02:13:02;98198.80;;;8.80
67822;BMP180;54434;50.096;20.082;2024-03-23T02:15:55;98197.80;;;8.80
67822;BMP180;54434;50.096;20.082;2024-03-23T02:18:51;98191.40;;;8.80
67822;BMP180;54434;50.096;20.082;2024-03-23T02:21:44;98190.00;;;8.80
67822;BMP180;54434;50.096;20.082;2024-03-23T02:24:38;98183.60;;;8.80
67822;BMP180;54434;50.096;20.082;2024-03-23T02:27:32;98176.80;;;8.80
67822;BMP180;54434;50.096;20.082;2024-03-23T02:30:26;98172.00;;;8.80
67822;BMP180;54434;50.096;20.082;2024-03-23T02:33:21;98167.40;;;8.80
67822;BMP180;54434;50.096;20.082;2024-03-23T02:36:13;98166.80;;;8.80
67822;BMP180;54434;50.096;20.082;2024-03-23T02:39:07;98163.20;;;8.80
67822;BMP180;54434;50.096;20.082;2024-03-23T02:42:01;98159.60;;;8.80
67822;BMP180;54434;50.096;20.082;2024-03-23T02:44:55;98151.60;;;8.80
67822;BMP180;54434;50.096;20.082;2024-03-23T02:47:48;98148.40;;;8.80
67822;BMP180;54434;50.096;20.082;2024-03-23T02:50:43;98146.80;;;8.80
67822;BMP180;54434;50.096;20.082;2024-03-23T02:53:50;98146.00;;;8.80
67822;BMP180;54434;50.096;20.082;2024-03-23T02:56:53;98142.60;;;8.78
67822;BMP180;54434;50.096;20.082;2024-03-23T02:59:49;98139.80;;;8.74
67822;BMP180;54434;50.096;20.082;2024-03-23T03:02:47;98139.60;;;8.70
67822;BMP180;54434;50.096;20.082;2024-03-23T03:05:44;98136.60;;;8.70
67822;BMP180;54434;50.096;20.082;2024-03-23T03:08:37;98143.80;;;8.70
67822;BMP180;54434;50.096;20.082;2024-03-23T03:11:30;98142.20;;;8.70
67822;BMP180;54434;50.096;20.082;2024-03-23T03:14:26;98142.20;;;8.70
67822;BMP180;54434;50.096;20.082;2024-03-23T03:17:19;98140.40;;;8.70
67822;BMP180;54434;50.096;20.082;2024-03-23T03:20:13;98136.40;;;8.70
67822;BMP180;54434;50.096;20.082;2024-03-23T03:23:09;98131.40;;;8.70
67822;BMP180;54434;50.096;20.082;2024-03-23T03:26:02;98124.80;;;8.70
67822;BMP180;54434;50.096;20.082;2024-03-23T03:28:55;98121.80;;;8.70
67822;BMP180;54434;50.096;20.082;2024-03-23T03:31:48;98112.80;;;8.60
67822;BMP180;54434;50.096;20.082;2024-03-23T03:34:41;98106.60;;;8.60
67822;BMP180;54434;50.096;20.082;2024-03-23T03:37:34;98104.60;;;8.60
67822;BMP180;54434;50.096;20.082;2024-03-23T03:40:27;98104.20;;;8.60
67822;BMP180;54434;50.096;20.082;2024-03-23T03:43:20;98100.20;;;8.60
67822;BMP180;54434;50.096;20.082;2024-03-23T03:46:15;98104.40;;;8.52
67822;BMP180;54434;50.096;20.082;2024-03-23T03:49:08;98105.60;;;8.50
67822;BMP180;54434;50.096;20.082;2024-03-23T03:52:05;98102.40;;;8.50
67822;BMP180;54434;50.096;20.082;2024-03-23T03:55:09;98099.00;;;8.50
67822;BMP180;54434;50.096;20.082;2024-03-23T03:58:06;98086.80;;;8.50
67822;BMP180;54434;50.096;20.082;2024-03-23T04:00:59;98082.60;;;8.50
67822;BMP180;54434;50.096;20.082;2024-03-23T04:03:52;98081.20;;;8.50
67822;BMP180;54434;50.096;20.082;2024-03-23T04:06:45;98087.60;;;8.40
67822;BMP180;54434;50.096;20.082;2024-03-23T04:09:38;98066.60;;;8.40
67822;BMP180;54434;50.096;20.082;2024-03-23T04:12:34;98079.60;;;8.40
67822;BMP180;54434;50.096;20.082;2024-03-23T04:15:27;98079.20;;;8.40
67822;BMP180;54434;50.096;20.082;2024-03-23T04:18:21;98079.40;;;8.30
67822;BMP180;54434;50.096;20.082;2024-03-23T04:21:18;98082.80;;;8.30
67822;BMP180;54434;50.096;20.082;2024-03-23T04:24:16;98078.20;;;8.30
67822;BMP180;54434;50.096;20.082;2024-03-23T04:27:11;98084.20;;;8.30
67822;BMP180;54434;50.096;20.082;2024-03-23T04:30:07;98083.00;;;8.30
67822;BMP180;54434;50.096;20.082;2024-03-23T04:33:04;98085.80;;;8.30
67822;BMP180;54434;50.096;20.082;2024-03-23T04:35:57;98090.00;;;8.30
67822;BMP180;54434;50.096;20.082;2024-03-23T04:38:50;98073.20;;;8.30
67822;BMP180;54434;50.096;20.082;2024-03-23T04:41:44;98072.40;;;8.30
67822;BMP180;54434;50.096;20.082;2024-03-23T04:44:37;98082.00;;;8.30
67822;BMP180;54434;50.096;20.082;2024-03-23T04:47:30;98074.80;;;8.30
67822;BMP180;54434;50.096;20.082;2024-03-23T04:50:25;98072.80;;;8.30
67822;BMP180;54434;50.096;20.082;2024-03-23T04:53:18;98075.20;;;8.30
67822;BMP180;54434;50.096;20.082;2024-03-23T04:56:11;98069.20;;;8.30
67822;BMP180;54434;50.096;20.082;2024-03-23T04:59:04;98060.00;;;8.30
67822;BMP180;54434;50.096;20.082;2024-03-23T05:01:58;98058.40;;;8.30
67822;BMP180;54434;50.096;20.082;2024-03-23T05:04:51;98057.60;;;8.30
67822;BMP180;54434;50.096;20.082;2024-03-23T05:07:44;98055.00;;;8.30
67822;BMP180;54434;50.096;20.082;2024-03-23T05:10:37;98046.80;;;8.30
67822;BMP180;54434;50.096;20.082;2024-03-23T05:13:30;98038.80;;;8.24
67822;BMP180;54434;50.096;20.082;2024-03-23T05:16:23;98045.20;;;8.20
67822;BMP180;54434;50.096;20.082;2024-03-23T05:19:16;98053.40;;;8.30
67822;BMP180;54434;50.096;20.082;2024-03-23T05:22:09;98035.60;;;8.30
67822;BMP180;54434;50.096;20.082;2024-03-23T05:25:02;98034.80;;;8.30
67822;BMP180;54434;50.096;20.082;2024-03-23T05:27:56;98034.60;;;8.32
67822;BMP180;54434;50.096;20.082;2024-03-23T05:30:53;98027.00;;;8.40
67822;BMP180;54434;50.096;20.082;2024-03-23T05:33:46;98030.20;;;8.40
67822;BMP180;54434;50.096;20.082;2024-03-23T05:36:39;98029.80;;;8.40
67822;BMP180;54434;50.096;20.082;2024-03-23T05:39:32;98027.60;;;8.40
67822;BMP180;54434;50.096;20.082;2024-03-23T05:42:26;98016.20;;;8.42
67822;BMP180;54434;50.096;20.082;2024-03-23T05:45:19;98017.40;;;8.50
67822;BMP180;54434;50.096;20.082;2024-03-23T05:48:12;98011.40;;;8.50
67822;BMP180;54434;50.096;20.082;2024-03-23T05:51:06;97992.80;;;8.56
67822;BMP180;54434;50.096;20.082;2024-03-23T05:53:59;98000.20;;;8.60
67822;BMP180;54434;50.096;20.082;2024-03-23T05:56:55;98008.00;;;8.60
67822;BMP180;54434;50.096;20.082;2024-03-23T05:59:48;98006.60;;;8.60
67822;BMP180;54434;50.096;20.082;2024-03-23T06:02:41;98006.60;;;8.70
67822;BMP180;54434;50.096;20.082;2024-03-23T06:05:36;98011.60;;;8.70
67822;BMP180;54434;50.096;20.082;2024-03-23T06:08:29;98011.00;;;8.80
67822;BMP180;54434;50.096;20.082;2024-03-23T06:11:22;97999.60;;;8.82
67822;BMP180;54434;50.096;20.082;2024-03-23T06:14:15;98005.00;;;8.90
67822;BMP180;54434;50.096;20.082;2024-03-23T06:17:08;98002.40;;;8.92
67822;BMP180;54434;50.096;20.082;2024-03-23T06:20:01;98002.80;;;9.00
67822;BMP180;54434;50.096;20.082;2024-03-23T06:22:53;97998.80;;;9.04
67822;BMP180;54434;50.096;20.082;2024-03-23T06:25:46;97993.00;;;9.10
67822;BMP180;54434;50.096;20.082;2024-03-23T06:28:40;97989.40;;;9.18
67822;BMP180;54434;50.096;20.082;2024-03-23T06:31:33;97984.40;;;9.20
67822;BMP180;54434;50.096;20.082;2024-03-23T06:34:26;97983.40;;;9.30
67822;BMP180;54434;50.096;20.082;2024-03-23T06:37:19;97971.20;;;9.30
67822;BMP180;54434;50.096;20.082;2024-03-23T06:40:13;97967.80;;;9.40
67822;BMP180;54434;50.096;20.082;2024-03-23T06:43:07;97961.80;;;9.40
67822;BMP180;54434;50.096;20.082;2024-03-23T06:46:01;97965.80;;;9.40
67822;BMP180;54434;50.096;20.082;2024-03-23T06:48:55;97962.40;;;9.40
67822;BMP180;54434;50.096;20.082;2024-03-23T06:51:49;97968.20;;;9.50
67822;BMP180;54434;50.096;20.082;2024-03-23T06:54:42;97974.60;;;9.52
67822;BMP180;54434;50.096;20.082;2024-03-23T06:57:36;97970.60;;;9.60
67822;BMP180;54434;50.096;20.082;2024-03-23T07:00:29;97978.40;;;9.70
67822;BMP180;54434;50.096;20.082;2024-03-23T07:03:22;97975.80;;;9.80
67822;BMP180;54434;50.096;20.082;2024-03-23T07:06:15;97972.40;;;9.80
67822;BMP180;54434;50.096;20.082;2024-03-23T07:09:08;97966.20;;;9.90
67822;BMP180;54434;50.096;20.082;2024-03-23T07:12:02;97968.00;;;10.00
67822;BMP180;54434;50.096;20.082;2024-03-23T07:14:55;97964.00;;;10.10
67822;BMP180;54434;50.096;20.082;2024-03-23T07:17:50;97963.20;;;10.20
67822;BMP180;54434;50.096;20.082;2024-03-23T07:20:45;97962.00;;;10.26
67822;BMP180;54434;50.096;20.082;2024-03-23T07:23:46;97957.60;;;10.40
67822;BMP180;54434;50.096;20.082;2024-03-23T07:26:39;97958.00;;;10.40
67822;BMP180;54434;50.096;20.082;2024-03-23T07:29:32;97960.40;;;10.60
67822;BMP180;54434;50.096;20.082;2024-03-23T07:32:25;97955.00;;;10.60
67822;BMP180;54434;50.096;20.082;2024-03-23T07:35:19;97954.00;;;10.70
67822;BMP180;54434;50.096;20.082;2024-03-23T07:38:12;97947.60;;;10.70
67822;BMP180;54434;50.096;20.082;2024-03-23T07:41:10;97949.20;;;10.72
67822;BMP180;54434;50.096;20.082;2024-03-23T07:44:03;97951.20;;;10.82
67822;BMP180;54434;50.096;20.082;2024-03-23T07:46:56;97947.20;;;10.94
67822;BMP180;54434;50.096;20.082;2024-03-23T07:49:49;97943.20;;;11.04
67822;BMP180;54434;50.096;20.082;2024-03-23T07:52:42;97935.20;;;11.10
67822;BMP180;54434;50.096;20.082;2024-03-23T07:55:35;97922.20;;;11.20
67822;BMP180;54434;50.096;20.082;2024-03-23T07:58:28;97919.80;;;11.30
67822;BMP180;54434;50.096;20.082;2024-03-23T08:01:21;97926.00;;;11.40
67822;BMP180;54434;50.096;20.082;2024-03-23T08:04:15;97925.40;;;11.68
67822;BMP180;54434;50.096;20.082;2024-03-23T08:07:08;97916.40;;;11.88
67822;BMP180;54434;50.096;20.082;2024-03-23T08:10:01;97914.80;;;12.00
67822;BMP180;54434;50.096;20.082;2024-03-23T08:12:55;97907.40;;;12.10
67822;BMP180;54434;50.096;20.082;2024-03-23T08:15:48;97897.40;;;12.28
67822;BMP180;54434;50.096;20.082;2024-03-23T08:18:41;97883.20;;;12.40
67822;BMP180;54434;50.096;20.082;2024-03-23T08:21:34;97879.20;;;12.50
67822;BMP180;54434;50.096;20.082;2024-03-23T08:24:28;97877.80;;;12.66
67822;BMP180;54434;50.096;20.082;2024-03-23T08:27:22;97871.80;;;12.82
67822;BMP180;54434;50.096;20.082;2024-03-23T08:30:15;97872.20;;;13.00
67822;BMP180;54434;50.096;20.082;2024-03-23T08:33:08;97870.80;;;13.20
67822;BMP180;54434;50.096;20.082;2024-03-23T08:36:03;97866.00;;;13.30
67822;BMP180;54434;50.096;20.082;2024-03-23T08:38:56;97865.00;;;13.40
67822;BMP180;54434;50.096;20.082;2024-03-23T08:41:50;97861.20;;;13.40
67822;BMP180;54434;50.096;20.082;2024-03-23T08:44:43;97858.40;;;13.40
67822;BMP180;54434;50.096;20.082;2024-03-23T08:47:38;97861.80;;;13.50
67822;BMP180;54434;50.096;20.082;2024-03-23T08:50:31;97860.00;;;13.50
67822;BMP180;54434;50.096;20.082;2024-03-23T08:53:24;97854.00;;;13.60
67822;BMP180;54434;50.096;20.082;2024-03-23T08:56:17;97846.00;;;13.60
67822;BMP180;54434;50.096;20.082;2024-03-23T08:59:11;97835.00;;;13.64
67822;BMP180;54434;50.096;20.082;2024-03-23T09:02:05;97828.60;;;13.70
67822;BMP180;54434;50.096;20.082;2024-03-23T09:04:57;97824.20;;;13.88
67822;BMP180;54434;50.096;20.082;2024-03-23T09:07:55;97820.20;;;14.00
67822;BMP180;54434;50.096;20.082;2024-03-23T09:10:49;97814.00;;;14.20
67822;BMP180;54434;50.096;20.082;2024-03-23T09:13:42;97810.00;;;14.40
67822;BMP180;54434;50.096;20.082;2024-03-23T09:16:35;97801.40;;;14.50
67822;BMP180;54434;50.096;20.082;2024-03-23T09:19:29;97798.80;;;14.80
67822;BMP180;54434;50.096;20.082;2024-03-23T09:22:22;97797.20;;;15.10
67822;BMP180;54434;50.096;20.082;2024-03-23T09:25:16;97794.60;;;15.30
67822;BMP180;54434;50.096;20.082;2024-03-23T09:28:10;97795.20;;;15.50
67822;BMP180;54434;50.096;20.082;2024-03-23T09:31:07;97785.00;;;15.60
67822;BMP180;54434;50.096;20.082;2024-03-23T09:34:00;97775.20;;;15.70
67822;BMP180;54434;50.096;20.082;2024-03-23T09:36:54;97775.40;;;15.80
67822;BMP180;54434;50.096;20.082;2024-03-23T09:39:47;97765.40;;;15.84
67822;BMP180;54434;50.096;20.082;2024-03-23T09:42:41;97766.00;;;16.00
67822;BMP180;54434;50.096;20.082;2024-03-23T09:45:41;97762.80;;;16.10
67822;BMP180;54434;50.096;20.082;2024-03-23T09:48:35;97752.40;;;16.20
67822;BMP180;54434;50.096;20.082;2024-03-23T09:51:28;97749.60;;;16.30
67822;BMP180;54434;50.096;20.082;2024-03-23T09:54:22;97746.40;;;16.40
67822;BMP180;54434;50.096;20.082;2024-03-23T09:57:14;97739.80;;;16.60
67822;BMP180;54434;50.096;20.082;2024-03-23T10:00:10;97734.20;;;16.70
67822;BMP180;54434;50.096;20.082;2024-03-23T10:03:04;97722.60;;;16.90
67822;BMP180;54434;50.096;20.082;2024-03-23T10:06:06;97715.60;;;17.00
67822;BMP180;54434;50.096;20.082;2024-03-23T10:08:59;97709.60;;;17.20
67822;BMP180;54434;50.096;20.082;2024-03-23T10:11:52;97699.00;;;17.36
67822;BMP180;54434;50.096;20.082;2024-03-23T10:14:46;97691.60;;;17.50
67822;BMP180;54434;50.096;20.082;2024-03-23T10:17:38;97696.00;;;17.68
67822;BMP180;54434;50.096;20.082;2024-03-23T10:20:31;97686.80;;;17.88
67822;BMP180;54434;50.096;20.082;2024-03-23T10:23:25;97684.80;;;18.10
67822;BMP180;54434;50.096;20.082;2024-03-23T10:26:24;97682.40;;;18.30
67822;BMP180;54434;50.096;20.082;2024-03-23T10:29:20;97677.40;;;18.50
67822;BMP180;54434;50.096;20.082;2024-03-23T10:32:15;97676.60;;;18.70
67822;BMP180;54434;50.096;20.082;2024-03-23T10:35:21;97673.40;;;18.90
67822;BMP180;54434;50.096;20.082;2024-03-23T10:38:14;97669.20;;;19.10
67822;BMP180;54434;50.096;20.082;2024-03-23T10:41:08;97658.40;;;19.30
67822;BMP180;54434;50.096;20.082;2024-03-23T10:44:03;97645.00;;;19.40
67822;BMP180;54434;50.096;20.082;2024-03-23T10:46:58;97641.20;;;19.60
67822;BMP180;54434;50.096;20.082;2024-03-23T10:49:52;97630.40;;;19.80
67822;BMP180;54434;50.096;20.082;2024-03-23T10:52:49;97620.20;;;19.84
67822;BMP180;54434;50.096;20.082;2024-03-23T10:55:43;97605.60;;;19.90
67822;BMP180;54434;50.096;20.082;2024-03-23T10:58:41;97601.00;;;19.90
67822;BMP180;54434;50.096;20.082;2024-03-23T11:01:35;97595.80;;;19.90
67822;BMP180;54434;50.096;20.082;2024-03-23T11:04:46;97586.00;;;19.90
67822;BMP180;54434;50.096;20.082;2024-03-23T11:07:40;97578.00;;;19.98
67822;BMP180;54434;50.096;20.082;2024-03-23T11:10:42;97571.80;;;19.90
67822;BMP180;54434;50.096;20.082;2024-03-23T11:13:35;97566.40;;;19.90
67822;BMP180;54434;50.096;20.082;2024-03-23T11:16:29;97559.60;;;19.90
67822;BMP180;54434;50.096;20.082;2024-03-23T11:19:40;97555.60;;;20.00
67822;BMP180;54434;50.096;20.082;2024-03-23T11:22:49;97555.20;;;20.00
67822;BMP180;54434;50.096;20.082;2024-03-23T11:25:44;97547.80;;;20.10
67822;BMP180;54434;50.096;20.082;2024-03-23T11:28:40;97537.60;;;20.18
67822;BMP180;54434;50.096;20.082;2024-03-23T11:31:34;97536.40;;;20.30
67822;BMP180;54434;50.096;20.082;2024-03-23T11:34:32;97533.60;;;20.40
67822;BMP180;54434;50.096;20.082;2024-03-23T11:37:28;97524.20;;;20.36
67822;BMP180;54434;50.096;20.082;2024-03-23T11:40:24;97516.20;;;20.30
67822;BMP180;54434;50.096;20.082;2024-03-23T11:43:18;97506.60;;;20.30
67822;BMP180;54434;50.096;20.082;2024-03-23T11:46:18;97497.00;;;20.40
67822;BMP180;54434;50.096;20.082;2024-03-23T11:49:25;97489.80;;;20.50
67822;BMP180;54434;50.096;20.082;2024-03-23T11:52:28;97487.40;;;20.60
67822;BMP180;54434;50.096;20.082;2024-03-23T11:55:22;97473.40;;;20.60
67822;BMP180;54434;50.096;20.082;2024-03-23T11:58:17;97474.20;;;20.70
67822;BMP180;54434;50.096;20.082;2024-03-23T12:01:13;97467.00;;;20.66
67822;BMP180;54434;50.096;20.082;2024-03-23T12:04:06;97463.60;;;20.70
67822;BMP180;54434;50.096;20.082;2024-03-23T12:07:19;97449.80;;;20.70
67822;BMP180;54434;50.096;20.082;2024-03-23T12:10:12;97445.40;;;20.70
67822;BMP180;54434;50.096;20.082;2024-03-23T12:13:06;97433.00;;;20.80
67822;BMP180;54434;50.096;20.082;2024-03-23T12:16:12;97426.00;;;20.90
67822;BMP180;54434;50.096;20.082;2024-03-23T12:19:08;97407.80;;;21.00
67822;BMP180;54434;50.096;20.082;2024-03-23T12:22:01;97396.60;;;21.18
67822;BMP180;54434;50.096;20.082;2024-03-23T12:24:55;97388.00;;;21.40
67822;BMP180;54434;50.096;20.082;2024-03-23T12:27:49;97368.40;;;21.50
67822;BMP180;54434;50.096;20.082;2024-03-23T12:30:43;97364.40;;;21.50
67822;BMP180;54434;50.096;20.082;2024-03-23T12:33:35;97364.00;;;21.50
67822;BMP180;54434;50.096;20.082;2024-03-23T12:36:29;97358.20;;;21.50
67822;BMP180;54434;50.096;20.082;2024-03-23T12:39:22;97350.00;;;21.40
67822;BMP180;54434;50.096;20.082;2024-03-23T12:42:15;97336.20;;;21.30
67822;BMP180;54434;50.096;20.082;2024-03-23T12:45:10;97333.20;;;21.30
67822;BMP180;54434;50.096;20.082;2024-03-23T12:48:03;97336.60;;;21.30
67822;BMP180;54434;50.096;20.082;2024-03-23T12:50:58;97326.80;;;21.40
67822;BMP180;54434;50.096;20.082;2024-03-23T12:53:51;97330.20;;;21.40
67822;BMP180;54434;50.096;20.082;2024-03-23T12:56:44;97320.20;;;21.40
67822;BMP180;54434;50.096;20.082;2024-03-23T12:59:38;97310.40;;;21.30
67822;BMP180;54434;50.096;20.082;2024-03-23T13:02:31;97304.40;;;21.30
67822;BMP180;54434;50.096;20.082;2024-03-23T13:05:27;97307.60;;;21.30
67822;BMP180;54434;50.096;20.082;2024-03-23T13:08:19;97307.20;;;21.20
67822;BMP180;54434;50.096;20.082;2024-03-23T13:11:15;97301.00;;;21.10
67822;BMP180;54434;50.096;20.082;2024-03-23T13:14:10;97283.60;;;21.00
67822;BMP180;54434;50.096;20.082;2024-03-23T13:17:07;97273.20;;;20.90
67822;BMP180;54434;50.096;20.082;2024-03-23T13:20:00;97267.40;;;20.78
67822;BMP180;54434;50.096;20.082;2024-03-23T13:22:53;97253.80;;;20.70
67822;BMP180;54434;50.096;20.082;2024-03-23T13:25:55;97240.00;;;20.66
67822;BMP180;54434;50.096;20.082;2024-03-23T13:28:48;97239.80;;;20.60
67822;BMP180;54434;50.096;20.082;2024-03-23T13:31:41;97232.00;;;20.50
67822;BMP180;54434;50.096;20.082;2024-03-23T13:34:34;97227.00;;;20.30
67822;BMP180;54434;50.096;20.082;2024-03-23T13:37:28;97221.80;;;20.20
67822;BMP180;54434;50.096;20.082;2024-03-23T13:40:20;97212.60;;;20.10
67822;BMP180;54434;50.096;20.082;2024-03-23T13:43:13;97204.80;;;20.00
67822;BMP180;54434;50.096;20.082;2024-03-23T13:46:06;97211.40;;;19.92
67822;BMP180;54434;50.096;20.082;2024-03-23T13:49:00;97208.80;;;20.00
67822;BMP180;54434;50.096;20.082;2024-03-23T13:51:53;97203.20;;;19.90
67822;BMP180;54434;50.096;20.082;2024-03-23T13:54:46;97195.80;;;19.90
67822;BMP180;54434;50.096;20.082;2024-03-23T13:57:40;97195.20;;;19.90
67822;BMP180;54434;50.096;20.082;2024-03-23T14:03:25;97185.80;;;19.90
67822;BMP180;54434;50.096;20.082;2024-03-23T14:06:20;97187.40;;;19.80
67822;BMP180;54434;50.096;20.082;2024-03-23T14:09:13;97186.00;;;19.80
67822;BMP180;54434;50.096;20.082;2024-03-23T14:12:08;97181.00;;;19.80
67822;BMP180;54434;50.096;20.082;2024-03-23T14:15:01;97181.40;;;19.80
67822;BMP180;54434;50.096;20.082;2024-03-23T14:17:54;97172.20;;;19.80
67822;BMP180;54434;50.096;20.082;2024-03-23T14:20:47;97171.40;;;19.80
67822;BMP180;54434;50.096;20.082;2024-03-23T14:23:41;97164.40;;;19.80
67822;BMP180;54434;50.096;20.082;2024-03-23T14:26:37;97165.80;;;19.70
67822;BMP180;54434;50.096;20.082;2024-03-23T14:29:30;97161.60;;;19.70
67822;BMP180;54434;50.096;20.082;2024-03-23T14:32:23;97157.00;;;19.60
67822;BMP180;54434;50.096;20.082;2024-03-23T14:35:16;97157.20;;;19.56
67822;BMP180;54434;50.096;20.082;2024-03-23T14:38:08;97162.80;;;19.50
67822;BMP180;54434;50.096;20.082;2024-03-23T14:41:02;97170.80;;;19.40
67822;BMP180;54434;50.096;20.082;2024-03-23T14:43:55;97186.80;;;19.30
67822;BMP180;54434;50.096;20.082;2024-03-23T14:46:48;97192.40;;;19.20
67822;BMP180;54434;50.096;20.082;2024-03-23T14:49:42;97213.00;;;19.10
67822;BMP180;54434;50.096;20.082;2024-03-23T14:52:38;97347.80;;;18.96
67822;BMP180;54434;50.096;20.082;2024-03-23T14:55:31;97384.80;;;18.12
67822;BMP180;54434;50.096;20.082;2024-03-23T14:58:24;97408.60;;;17.00
67822;BMP180;54434;50.096;20.082;2024-03-23T15:01:17;97428.20;;;16.12
67822;BMP180;54434;50.096;20.082;2024-03-23T15:04:11;97434.20;;;15.42
67822;BMP180;54434;50.096;20.082;2024-03-23T15:07:04;97440.60;;;14.80
67822;BMP180;54434;50.096;20.082;2024-03-23T15:09:57;97448.00;;;14.32
67822;BMP180;54434;50.096;20.082;2024-03-23T15:12:50;97448.40;;;13.98
67822;BMP180;54434;50.096;20.082;2024-03-23T15:15:44;97455.20;;;13.68
67822;BMP180;54434;50.096;20.082;2024-03-23T15:18:37;97464.00;;;13.40
67822;BMP180;54434;50.096;20.082;2024-03-23T15:21:31;97455.60;;;13.18
67822;BMP180;54434;50.096;20.082;2024-03-23T15:24:24;97451.20;;;13.00
67822;BMP180;54434;50.096;20.082;2024-03-23T15:27:17;97451.20;;;12.80
67822;BMP180;54434;50.096;20.082;2024-03-23T15:30:13;97454.60;;;12.60
67822;BMP180;54434;50.096;20.082;2024-03-23T15:33:06;97464.20;;;12.50
67822;BMP180;54434;50.096;20.082;2024-03-23T15:36:02;97485.60;;;12.40
67822;BMP180;54434;50.096;20.082;2024-03-23T15:38:55;97505.20;;;12.30
67822;BMP180;54434;50.096;20.082;2024-03-23T15:41:49;97522.40;;;12.20
67822;BMP180;54434;50.096;20.082;2024-03-23T15:44:42;97538.00;;;12.12
67822;BMP180;54434;50.096;20.082;2024-03-23T15:47:37;97542.20;;;12.04
67822;BMP180;54434;50.096;20.082;2024-03-23T15:50:31;97549.80;;;11.92
67822;BMP180;54434;50.096;20.082;2024-03-23T15:53:27;97551.00;;;11.80
67822;BMP180;54434;50.096;20.082;2024-03-23T15:56:21;97554.20;;;11.70
67822;BMP180;54434;50.096;20.082;2024-03-23T15:59:14;97554.60;;;11.60
67822;BMP180;54434;50.096;20.082;2024-03-23T16:02:07;97563.60;;;11.44
67822;BMP180;54434;50.096;20.082;2024-03-23T16:05:00;97567.60;;;11.30
67822;BMP180;54434;50.096;20.082;2024-03-23T16:07:55;97565.60;;;11.20
67822;BMP180;54434;50.096;20.082;2024-03-23T16:10:48;97552.80;;;11.10
67822;BMP180;54434;50.096;20.082;2024-03-23T16:13:41;97559.60;;;11.00
67822;BMP180;54434;50.096;20.082;2024-03-23T16:16:34;97540.80;;;11.00
67822;BMP180;54434;50.096;20.082;2024-03-23T16:19:27;97524.40;;;10.90
67822;BMP180;54434;50.096;20.082;2024-03-23T16:22:20;97542.40;;;10.80
67822;BMP180;54434;50.096;20.082;2024-03-23T16:25:14;97536.80;;;10.80
67822;BMP180;54434;50.096;20.082;2024-03-23T16:28:08;97550.80;;;10.70
67822;BMP180;54434;50.096;20.082;2024-03-23T16:31:03;97557.00;;;10.68
67822;BMP180;54434;50.096;20.082;2024-03-23T16:33:56;97557.00;;;10.60
67822;BMP180;54434;50.096;20.082;2024-03-23T16:36:49;97552.00;;;10.58
67822;BMP180;54434;50.096;20.082;2024-03-23T16:39:42;97550.20;;;10.50
67822;BMP180;54434;50.096;20.082;2024-03-23T16:42:35;97544.60;;;10.46
67822;BMP180;54434;50.096;20.082;2024-03-23T16:45:28;97534.20;;;10.40
67822;BMP180;54434;50.096;20.082;2024-03-23T16:48:22;97542.40;;;10.40
67822;BMP180;54434;50.096;20.082;2024-03-23T16:51:15;97549.80;;;10.40
67822;BMP180;54434;50.096;20.082;2024-03-23T16:54:07;97554.60;;;10.34
67822;BMP180;54434;50.096;20.082;2024-03-23T16:57:00;97558.40;;;10.32
67822;BMP180;54434;50.096;20.082;2024-03-23T16:59:56;97558.80;;;10.30
67822;BMP180;54434;50.096;20.082;2024-03-23T17:02:49;97569.20;;;10.30
67822;BMP180;54434;50.096;20.082;2024-03-23T17:05:43;97578.80;;;10.30
67822;BMP180;54434;50.096;20.082;2024-03-23T17:08:36;97587.80;;;10.30
67822;BMP180;54434;50.096;20.082;2024-03-23T17:11:29;97594.00;;;10.30
67822;BMP180;54434;50.096;20.082;2024-03-23T17:14:22;97597.80;;;10.30
67822;BMP180;54434;50.096;20.082;2024-03-23T17:17:15;97598.20;;;10.30
67822;BMP180;54434;50.096;20.082;2024-03-23T17:20:11;97597.80;;;10.30
67822;BMP180;54434;50.096;20.082;2024-03-23T17:23:04;97605.00;;;10.30
67822;BMP180;54434;50.096;20.082;2024-03-23T17:25:58;97599.20;;;10.30
67822;BMP180;54434;50.096;20.082;2024-03-23T17:28:52;97609.60;;;10.30
67822;BMP180;54434;50.096;20.082;2024-03-23T17:31:45;97615.40;;;10.28